Terminal Aerodrome Forecast
Issued by NWS

Home | Current Version | Previous Version | Text Only | Print | Product List | Glossary On
Versions: 1 2 3 4 5 6 7 8 9 10 11 12 13 14 15 16 17 18 19 20 21 22 23 24
000
FTUS44 KOUN 010520
TAFCSM
TAF
KCSM 010520Z 0106/0206 17022G32KT P6SM SKC
     FM011400 21018G28KT P6SM SKC
     FM012000 17014KT P6SM SCT070
     FM020000 12012KT P6SM BKN250=

USA.gov is the U.S. government's official web portal to all federal, state and local government web resources and services.